Albany, NY

10:20 AM EDT on May 30, 2016 (GMT -0400)
Whitehall | Change Station
CLOSE
Current Station
Personal Weather Station
Location: Albany, NY
Elevation: 226 ft
Nearby Weather Stations

Elev 226 ft 42.65 °N, 73.80 °W | Updated 19 seconds ago

Partly Cloudy
Partly Cloudy
71.2 °F
Feels Like 71 °F
N
0.0
Wind Variable Wind from North
Gusts 0.0 mph

Today
High -- | Low -- °F
--% Chance of Precip.
Yesterday
High -- | Low -- °F
Precip. -- in
5:20 AM 8:25 PM
Last Quarter, 38% visible
Pressure 29.97 in
Visibility 10.0 miles
Clouds Few 1200 ft
Few 11000 ft
Few 18000 ft
Scattered Clouds 25000 ft
Heat Index 71 °F
Dew Point 66 °F
Humidity 82%
Rainfall 0.05 in
Snow Depth Not available.
UV 5.0 out of 12
Pollen 9.8 out of 12
Ozone Good
PM2.5 Good
Flu Activity Widespread
METAR KALB 301351Z 16010KT 10SM FEW012 FEW110 FEW180 SCT250 21/17 A2997 RMK AO2 SLP147 T02110172

More Conditions Fewer Conditions

Pressure 29.97 in
Visibility 10.0 miles
Clouds Few 1200 ft
Few 11000 ft
Few 18000 ft
Scattered Clouds 25000 ft
Heat Index 71 °F
Dew Point 66 °F
Humidity 82%
Rainfall 0.05 in
Snow Depth Not available.
UV 5.0 out of 12
Pollen 9.8 out of 12
Ozone Good
PM2.5 Good
Flu Activity Widespread
METAR KALB 301351Z 16010KT 10SM FEW012 FEW110 FEW180 SCT250 21/17 A2997 RMK AO2 SLP147 T02110172

More Conditions Fewer Conditions

10-Day Weather Forecast

Almanac

Astronomy

May. 30, 2016 Rise Set
Actual Time 5:20 AM EDT 8:25 PM EDT
Civil Twilight 4:46 AM EDT 8:59 PM EDT
Nautical Twilight 4:03 AM EDT 9:42 PM EDT
Astronomical Twilight 3:11 AM EDT 10:34 PM EDT
Moon 1:58 AM EDT 1:56 PM EDT
Length of Visible Light 16h 12m
Length of Day
15h 04m
Tomorrow will be 1m 19s longer.
Last Quarter, 38% of the Moon is Illuminated
Today
Last Quarter
Jun 4
New
Jun 12
First Quarter
Jun 20
Full
Jun 27
Last Quarter

Yesterday's Extremes

State Highs State Lows

Community

WunderPhotos

Upload Photos

1,914,636 photos uploaded!

Nearby

Air Quality

  Air Quality AQ Index Pollutant
Yesterday Good
OZONE
Yesterday Good
PM2.5
Current Good
OZONE
Current Good
PM2.5
Monday Good
OZONE
Monday Good
PM2.5
Tuesday Good
OZONE
Tuesday Good
PM2.5

Snow Depth

Station Depth Elevation
No new snow has been reported.

Earthquake Activity

City Distance Mag. Time & Date
No recent earthquake activity has been reported nearby.
Minimum magnitude displayed is 2.5.

Coastal Water Temperatures

Place Temperature
No Stations Reporting

Nearby Weather Stations